PWSweather.com
Personal Weather Stations
Station Observations
IMAZOWIE6
WarszawaPL

WarszawaPL

Lat: 52.27957, Lon: 21.05489

Elevation: 100

Station Type: WS1080

http://stacjapogody.waw.pl/

High Low Average
Temperature 37.9°F3.3°C 28.6°F-1.9°C 32.8°F0.4°C
Dew Point 3.4°F-15.9°C -9.5°F-23.1°C -2.3°F-19.1°C
Winds 4.0 mph 6.4 kmh Calm Calm 1.0 mph N1.6 kmh N
Wind Gusts 10.2 mph16.4 kmh -- 2.0 mph3.2 kmh
Humidity 31% 13% 22%
Pressure 29.60 in1002.4 mb 29.29 in991.9 mb -
Precipitation 0.00 in0.0 mm - -
Hour Temp Dew Point Humidity Winds Wind Gusts Pressure Precip Precip Rate Daily Precip Total
12:05 AM 33.4°F0.8°C -1.5°F-18.6°C 22% 1.4 mph N2.3 kmh N 3.4 mph5.5 kmh 29.29 in991.9 mb 0.00 in0.0 mm 0.00 in0.0 mm 0.00 in0.0 mm
12:20 AM 33.3°F0.7°C -1.7°F-18.7°C 22% 0.6 mph N1.0 kmh N 2.8 mph4.5 kmh 29.29 in991.9 mb 0.00 in0.0 mm 0.00 in0.0 mm 0.00 in0.0 mm
12:35 AM 33.1°F0.6°C -1.9°F-18.8°C 22% 1.4 mph N2.3 kmh N 3.4 mph5.5 kmh 29.29 in991.9 mb 0.00 in0.0 mm 0.00 in0.0 mm 0.00 in0.0 mm
12:50 AM 33.1°F0.6°C -1.9°F-18.8°C 22% 1.4 mph N2.3 kmh N 3.4 mph5.5 kmh 29.29 in991.9 mb 0.00 in0.0 mm 0.00 in0.0 mm 0.00 in0.0 mm
01:05 AM 32.9°F0.5°C -2.0°F-18.9°C 22% 1.4 mph N2.3 kmh N 4.0 mph6.4 kmh 29.30 in992.2 mb 0.00 in0.0 mm 0.00 in0.0 mm 0.00 in0.0 mm
01:20 AM 32.9°F0.5°C -2.0°F-18.9°C 22% 2.0 mph N3.2 kmh N 3.4 mph5.5 kmh 29.30 in992.2 mb 0.00 in0.0 mm 0.00 in0.0 mm 0.00 in0.0 mm
01:35 AM 32.7°F0.4°C -2.2°F-19.0°C 22% 1.4 mph N2.3 kmh N 4.0 mph6.4 kmh 29.30 in992.2 mb 0.00 in0.0 mm 0.00 in0.0 mm 0.00 in0.0 mm
01:50 AM 32.5°F0.3°C -2.3°F-19.1°C 22% 1.4 mph N2.3 kmh N 3.4 mph5.5 kmh 29.31 in992.6 mb 0.00 in0.0 mm 0.00 in0.0 mm 0.00 in0.0 mm
02:05 AM 32.5°F0.3°C -2.3°F-19.1°C 22% 0.6 mph N1.0 kmh N 2.8 mph4.5 kmh 29.31 in992.6 mb 0.00 in0.0 mm 0.00 in0.0 mm 0.00 in0.0 mm
02:20 AM 32.4°F0.2°C -2.5°F-19.2°C 22% 1.4 mph N2.3 kmh N 2.8 mph4.5 kmh 29.31 in992.6 mb 0.00 in0.0 mm 0.00 in0.0 mm 0.00 in0.0 mm
02:35 AM 32.4°F0.2°C -2.5°F-19.2°C 22% 1.4 mph N2.3 kmh N 2.8 mph4.5 kmh 29.32 in992.9 mb 0.00 in0.0 mm 0.00 in0.0 mm 0.00 in0.0 mm
02:50 AM 32.4°F0.2°C -2.5°F-19.2°C 22% 2.0 mph N3.2 kmh N 4.0 mph6.4 kmh 29.32 in992.9 mb 0.00 in0.0 mm 0.00 in0.0 mm 0.00 in0.0 mm
03:05 AM 31.8°F-0.1°C -3.9°F-19.9°C 21% 0.6 mph N1.0 kmh N 2.0 mph3.2 kmh 29.33 in993.2 mb 0.00 in0.0 mm 0.00 in0.0 mm 0.00 in0.0 mm
03:20 AM 30.9°F-0.6°C -4.6°F-20.3°C 21% 2.0 mph N3.2 kmh N 3.4 mph5.5 kmh 29.33 in993.2 mb 0.00 in0.0 mm 0.00 in0.0 mm 0.00 in0.0 mm
03:35 AM 30.9°F-0.6°C -4.6°F-20.3°C 21% 2.8 mph N4.5 kmh N 5.4 mph8.7 kmh 29.33 in993.2 mb 0.00 in0.0 mm 0.00 in0.0 mm 0.00 in0.0 mm
03:50 AM 30.7°F-0.7°C -4.8°F-20.4°C 21% 2.0 mph N3.2 kmh N 4.8 mph7.7 kmh 29.34 in993.6 mb 0.00 in0.0 mm 0.00 in0.0 mm 0.00 in0.0 mm
04:05 AM 30.4°F-0.9°C -5.1°F-20.6°C 21% 1.4 mph N2.3 kmh N 4.0 mph6.4 kmh 29.34 in993.6 mb 0.00 in0.0 mm 0.00 in0.0 mm 0.00 in0.0 mm
04:20 AM 30.2°F-1.0°C -5.2°F-20.7°C 21% 1.4 mph N2.3 kmh N 3.4 mph5.5 kmh 29.34 in993.6 mb 0.00 in0.0 mm 0.00 in0.0 mm 0.00 in0.0 mm
04:35 AM 30.0°F-1.1°C -5.4°F-20.8°C 21% 1.4 mph N2.3 kmh N 3.4 mph5.5 kmh 29.35 in993.9 mb 0.00 in0.0 mm 0.00 in0.0 mm 0.00 in0.0 mm
04:50 AM 29.7°F-1.3°C -6.7°F-21.5°C 20% 1.4 mph N2.3 kmh N 2.0 mph3.2 kmh 29.35 in993.9 mb 0.00 in0.0 mm 0.00 in0.0 mm 0.00 in0.0 mm
05:05 AM 29.3°F-1.5°C -6.0°F-21.1°C 21% 0.6 mph N1.0 kmh N 1.4 mph2.3 kmh 29.35 in993.9 mb 0.00 in0.0 mm 0.00 in0.0 mm 0.00 in0.0 mm
05:20 AM 28.6°F-1.9°C -6.6°F-21.4°C 21% 0.6 mph N1.0 kmh N 2.0 mph3.2 kmh 29.36 in994.2 mb 0.00 in0.0 mm 0.00 in0.0 mm 0.00 in0.0 mm
05:35 AM 28.9°F-1.7°C -6.3°F-21.3°C 21% Calm Calm 1.4 mph2.3 kmh 29.37 in994.6 mb 0.00 in0.0 mm 0.00 in0.0 mm 0.00 in0.0 mm
05:50 AM 29.7°F-1.3°C -4.7°F-20.4°C 22% 0.6 mph N1.0 kmh N 2.0 mph3.2 kmh 29.37 in994.6 mb 0.00 in0.0 mm 0.00 in0.0 mm 0.00 in0.0 mm
06:05 AM 30.0°F-1.1°C -3.5°F-19.7°C 23% Calm Calm -- 29.37 in994.6 mb 0.00 in0.0 mm 0.00 in0.0 mm 0.00 in0.0 mm
06:20 AM 30.7°F-0.7°C -2.9°F-19.4°C 23% Calm Calm 1.4 mph2.3 kmh 29.37 in994.6 mb 0.00 in0.0 mm 0.00 in0.0 mm 0.00 in0.0 mm
06:35 AM 31.3°F-0.4°C -2.4°F-19.1°C 23% Calm Calm 1.4 mph2.3 kmh 29.38 in994.9 mb 0.00 in0.0 mm 0.00 in0.0 mm 0.00 in0.0 mm
06:50 AM 31.8°F-0.1°C -1.1°F-18.4°C 24% Calm Calm 1.4 mph2.3 kmh 29.38 in994.9 mb 0.00 in0.0 mm 0.00 in0.0 mm 0.00 in0.0 mm
07:05 AM 32.0°F0.0°C -0.9°F-18.3°C 24% Calm Calm -- 29.39 in995.3 mb 0.00 in0.0 mm 0.00 in0.0 mm 0.00 in0.0 mm
07:20 AM 32.0°F0.0°C -0.9°F-18.3°C 24% Calm Calm 1.4 mph2.3 kmh 29.39 in995.3 mb 0.00 in0.0 mm 0.00 in0.0 mm 0.00 in0.0 mm
07:35 AM 32.2°F0.1°C -0.8°F-18.2°C 24% Calm Calm 2.0 mph3.2 kmh 29.40 in995.6 mb 0.00 in0.0 mm 0.00 in0.0 mm 0.00 in0.0 mm
07:50 AM 32.2°F0.1°C -0.8°F-18.2°C 24% 0.6 mph N1.0 kmh N 2.0 mph3.2 kmh 29.40 in995.6 mb 0.00 in0.0 mm 0.00 in0.0 mm 0.00 in0.0 mm
08:05 AM 32.2°F0.1°C -0.8°F-18.2°C 24% 0.6 mph N1.0 kmh N 2.0 mph3.2 kmh 29.41 in995.9 mb 0.00 in0.0 mm 0.00 in0.0 mm 0.00 in0.0 mm
08:20 AM 32.5°F0.3°C -0.5°F-18.1°C 24% Calm Calm 0.6 mph1.0 kmh 29.42 in996.3 mb 0.00 in0.0 mm 0.00 in0.0 mm 0.00 in0.0 mm
08:35 AM 33.1°F0.6°C 0.0°F-17.8°C 24% Calm Calm 0.6 mph1.0 kmh 29.43 in996.6 mb 0.00 in0.0 mm 0.00 in0.0 mm 0.00 in0.0 mm
08:50 AM 33.4°F0.8°C -0.6°F-18.1°C 23% Calm Calm 1.4 mph2.3 kmh 29.43 in996.6 mb 0.00 in0.0 mm 0.00 in0.0 mm 0.00 in0.0 mm
09:05 AM 34.3°F1.3°C 0.2°F-17.7°C 23% 1.4 mph N2.3 kmh N 2.8 mph4.5 kmh 29.43 in996.6 mb 0.00 in0.0 mm 0.00 in0.0 mm 0.00 in0.0 mm
09:20 AM 34.3°F1.3°C -0.8°F-18.2°C 22% 0.6 mph N1.0 kmh N 2.0 mph3.2 kmh 29.44 in997.0 mb 0.00 in0.0 mm 0.00 in0.0 mm 0.00 in0.0 mm
09:35 AM 34.5°F1.4°C -0.6°F-18.1°C 22% 0.6 mph N1.0 kmh N 2.0 mph3.2 kmh 29.44 in997.0 mb 0.00 in0.0 mm 0.00 in0.0 mm 0.00 in0.0 mm
09:50 AM 34.7°F1.5°C -0.5°F-18.1°C 22% 1.4 mph N2.3 kmh N 2.8 mph4.5 kmh 29.44 in997.0 mb 0.00 in0.0 mm 0.00 in0.0 mm 0.00 in0.0 mm
10:05 AM 35.4°F1.9°C 0.1°F-17.7°C 22% 2.0 mph N3.2 kmh N 4.0 mph6.4 kmh 29.44 in997.0 mb 0.00 in0.0 mm 0.00 in0.0 mm 0.00 in0.0 mm
10:20 AM 36.1°F2.3°C -0.3°F-17.9°C 21% 1.4 mph N2.3 kmh N 3.4 mph5.5 kmh 29.45 in997.3 mb 0.00 in0.0 mm 0.00 in0.0 mm 0.00 in0.0 mm
10:35 AM 36.5°F2.5°C 0.1°F-17.7°C 21% 2.0 mph N3.2 kmh N 4.8 mph7.7 kmh 29.45 in997.3 mb 0.00 in0.0 mm 0.00 in0.0 mm 0.00 in0.0 mm
10:50 AM 36.9°F2.7°C -0.7°F-18.2°C 20% 1.4 mph N2.3 kmh N 3.4 mph5.5 kmh 29.45 in997.3 mb 0.00 in0.0 mm 0.00 in0.0 mm 0.00 in0.0 mm
11:05 AM 37.6°F3.1°C -0.1°F-17.8°C 20% 2.0 mph N3.2 kmh N 4.0 mph6.4 kmh 29.45 in997.3 mb 0.00 in0.0 mm 0.00 in0.0 mm 0.00 in0.0 mm
11:20 AM 36.9°F2.7°C -2.9°F-19.4°C 18% 0.6 mph N1.0 kmh N 2.0 mph3.2 kmh 29.45 in997.3 mb 0.00 in0.0 mm 0.00 in0.0 mm 0.00 in0.0 mm
11:35 AM 36.7°F2.6°C -3.0°F-19.4°C 18% 1.4 mph N2.3 kmh N 2.8 mph4.5 kmh 29.46 in997.6 mb 0.00 in0.0 mm 0.00 in0.0 mm 0.00 in0.0 mm
11:50 AM 36.5°F2.5°C -3.2°F-19.6°C 18% 1.4 mph N2.3 kmh N 2.8 mph4.5 kmh 29.45 in997.3 mb 0.00 in0.0 mm 0.00 in0.0 mm 0.00 in0.0 mm
12:05 PM 36.1°F2.3°C -4.7°F-20.4°C 17% 1.4 mph N2.3 kmh N 2.0 mph3.2 kmh 29.46 in997.6 mb 0.00 in0.0 mm 0.00 in0.0 mm 0.00 in0.0 mm
12:20 PM 36.7°F2.6°C -4.2°F-20.1°C 17% 0.6 mph N1.0 kmh N 2.0 mph3.2 kmh 29.47 in998.0 mb 0.00 in0.0 mm 0.00 in0.0 mm 0.00 in0.0 mm
12:35 PM 37.6°F3.1°C -3.5°F-19.7°C 17% 0.6 mph N1.0 kmh N 2.0 mph3.2 kmh 29.47 in998.0 mb 0.00 in0.0 mm 0.00 in0.0 mm 0.00 in0.0 mm
12:50 PM 37.9°F3.3°C -4.4°F-20.2°C 16% 1.4 mph N2.3 kmh N 3.4 mph5.5 kmh 29.47 in998.0 mb 0.00 in0.0 mm 0.00 in0.0 mm 0.00 in0.0 mm
01:05 PM 37.8°F3.2°C -4.6°F-20.3°C 16% 1.4 mph N2.3 kmh N 2.8 mph4.5 kmh 29.47 in998.0 mb 0.00 in0.0 mm 0.00 in0.0 mm 0.00 in0.0 mm
01:20 PM 37.6°F3.1°C -6.0°F-21.1°C 15% 1.4 mph N2.3 kmh N 4.0 mph6.4 kmh 29.47 in998.0 mb 0.00 in0.0 mm 0.00 in0.0 mm 0.00 in0.0 mm
01:35 PM 37.6°F3.1°C -7.4°F-21.9°C 14% 1.4 mph N2.3 kmh N 2.8 mph4.5 kmh 29.48 in998.3 mb 0.00 in0.0 mm 0.00 in0.0 mm 0.00 in0.0 mm
01:50 PM 37.6°F3.1°C -7.4°F-21.9°C 14% 1.4 mph N2.3 kmh N 3.4 mph5.5 kmh 29.48 in998.3 mb 0.00 in0.0 mm 0.00 in0.0 mm 0.00 in0.0 mm
02:05 PM 37.2°F2.9°C -7.7°F-22.1°C 14% 1.4 mph N2.3 kmh N 4.0 mph6.4 kmh 29.49 in998.6 mb 0.00 in0.0 mm 0.00 in0.0 mm 0.00 in0.0 mm
02:20 PM 37.0°F2.8°C -9.4°F-23.0°C 13% 1.4 mph N2.3 kmh N 2.8 mph4.5 kmh 29.49 in998.6 mb 0.00 in0.0 mm 0.00 in0.0 mm 0.00 in0.0 mm
02:35 PM 36.9°F2.7°C -9.5°F-23.1°C 13% 4.0 mph N6.4 kmh N 10.2 mph16.4 kmh 29.50 in999.0 mb 0.00 in0.0 mm 0.00 in0.0 mm 0.00 in0.0 mm
02:50 PM 35.4°F1.9°C -9.2°F-22.9°C 14% 1.4 mph N2.3 kmh N 3.4 mph5.5 kmh 29.50 in999.0 mb 0.00 in0.0 mm 0.00 in0.0 mm 0.00 in0.0 mm
03:05 PM 34.7°F1.5°C -8.4°F-22.4°C 15% 1.4 mph N2.3 kmh N 3.4 mph5.5 kmh 29.51 in999.3 mb 0.00 in0.0 mm 0.00 in0.0 mm 0.00 in0.0 mm
03:20 PM 33.8°F1.0°C -7.8°F-22.1°C 16% 0.6 mph N1.0 kmh N 2.0 mph3.2 kmh 29.51 in999.3 mb 0.00 in0.0 mm 0.00 in0.0 mm 0.00 in0.0 mm
03:35 PM 33.4°F0.8°C -6.9°F-21.6°C 17% Calm Calm 1.4 mph2.3 kmh 29.52 in999.7 mb 0.00 in0.0 mm 0.00 in0.0 mm 0.00 in0.0 mm
03:50 PM 33.3°F0.7°C -5.9°F-21.1°C 18% 0.6 mph N1.0 kmh N 1.4 mph2.3 kmh 29.52 in999.7 mb 0.00 in0.0 mm 0.00 in0.0 mm 0.00 in0.0 mm
04:05 PM 32.9°F0.5°C -5.0°F-20.6°C 19% Calm Calm -- 29.52 in999.7 mb 0.00 in0.0 mm 0.00 in0.0 mm 0.00 in0.0 mm
04:20 PM 31.8°F-0.1°C -5.9°F-21.1°C 19% Calm Calm -- 29.52 in999.7 mb 0.00 in0.0 mm 0.00 in0.0 mm 0.00 in0.0 mm
04:35 PM 31.5°F-0.3°C -5.2°F-20.7°C 20% Calm Calm -- 29.52 in999.7 mb 0.00 in0.0 mm 0.00 in0.0 mm 0.00 in0.0 mm
04:50 PM 31.3°F-0.4°C -4.3°F-20.2°C 21% Calm Calm 0.6 mph1.0 kmh 29.53 in1000.0 mb 0.00 in0.0 mm 0.00 in0.0 mm 0.00 in0.0 mm
05:05 PM 31.5°F-0.3°C -3.2°F-19.6°C 22% Calm Calm 0.6 mph1.0 kmh 29.53 in1000.0 mb 0.00 in0.0 mm 0.00 in0.0 mm 0.00 in0.0 mm
05:20 PM 31.3°F-0.4°C -2.4°F-19.1°C 23% Calm Calm 1.4 mph2.3 kmh 29.54 in1000.3 mb 0.00 in0.0 mm 0.00 in0.0 mm 0.00 in0.0 mm
05:35 PM 31.3°F-0.4°C -2.4°F-19.1°C 23% 0.6 mph N1.0 kmh N 2.0 mph3.2 kmh 29.54 in1000.3 mb 0.00 in0.0 mm 0.00 in0.0 mm 0.00 in0.0 mm
05:50 PM 31.3°F-0.4°C -1.6°F-18.7°C 24% Calm Calm -- 29.55 in1000.7 mb 0.00 in0.0 mm 0.00 in0.0 mm 0.00 in0.0 mm
06:05 PM 31.6°F-0.2°C -1.2°F-18.4°C 24% 0.6 mph N1.0 kmh N 2.0 mph3.2 kmh 29.55 in1000.7 mb 0.00 in0.0 mm 0.00 in0.0 mm 0.00 in0.0 mm
06:20 PM 31.6°F-0.2°C -0.4°F-18.0°C 25% Calm Calm 0.6 mph1.0 kmh 29.55 in1000.7 mb 0.00 in0.0 mm 0.00 in0.0 mm 0.00 in0.0 mm
06:35 PM 31.6°F-0.2°C -0.4°F-18.0°C 25% Calm Calm 2.8 mph4.5 kmh 29.55 in1000.7 mb 0.00 in0.0 mm 0.00 in0.0 mm 0.00 in0.0 mm
06:50 PM 31.6°F-0.2°C -0.4°F-18.0°C 25% Calm Calm 1.4 mph2.3 kmh 29.55 in1000.7 mb 0.00 in0.0 mm 0.00 in0.0 mm 0.00 in0.0 mm
07:05 PM 31.8°F-0.1°C 0.6°F-17.4°C 26% 0.6 mph N1.0 kmh N 2.0 mph3.2 kmh 29.55 in1000.7 mb 0.00 in0.0 mm 0.00 in0.0 mm 0.00 in0.0 mm
07:20 PM 32.0°F0.0°C 0.8°F-17.3°C 26% Calm Calm 0.6 mph1.0 kmh 29.55 in1000.7 mb 0.00 in0.0 mm 0.00 in0.0 mm 0.00 in0.0 mm
07:35 PM 32.4°F0.2°C 1.9°F-16.7°C 27% Calm Calm 0.6 mph1.0 kmh 29.56 in1001.0 mb 0.00 in0.0 mm 0.00 in0.0 mm 0.00 in0.0 mm
07:50 PM 32.2°F0.1°C 1.7°F-16.8°C 27% Calm Calm -- 29.56 in1001.0 mb 0.00 in0.0 mm 0.00 in0.0 mm 0.00 in0.0 mm
08:05 PM 31.8°F-0.1°C 1.4°F-17.0°C 27% Calm Calm -- 29.56 in1001.0 mb 0.00 in0.0 mm 0.00 in0.0 mm 0.00 in0.0 mm
08:20 PM 31.8°F-0.1°C 1.4°F-17.0°C 27% Calm Calm -- 29.56 in1001.0 mb 0.00 in0.0 mm 0.00 in0.0 mm 0.00 in0.0 mm
08:35 PM 31.5°F-0.3°C 1.1°F-17.2°C 27% Calm Calm 0.6 mph1.0 kmh 29.57 in1001.4 mb 0.00 in0.0 mm 0.00 in0.0 mm 0.00 in0.0 mm
08:50 PM 31.1°F-0.5°C 0.8°F-17.3°C 27% Calm Calm -- 29.57 in1001.4 mb 0.00 in0.0 mm 0.00 in0.0 mm 0.00 in0.0 mm
09:05 PM 30.9°F-0.6°C 1.4°F-17.0°C 28% Calm Calm -- 29.57 in1001.4 mb 0.00 in0.0 mm 0.00 in0.0 mm 0.00 in0.0 mm
09:20 PM 30.6°F-0.8°C 1.1°F-17.2°C 28% Calm Calm -- 29.57 in1001.4 mb 0.00 in0.0 mm 0.00 in0.0 mm 0.00 in0.0 mm
09:35 PM 30.4°F-0.9°C 0.9°F-17.3°C 28% Calm Calm -- 29.57 in1001.4 mb 0.00 in0.0 mm 0.00 in0.0 mm 0.00 in0.0 mm
09:50 PM 30.6°F-0.8°C 1.8°F-16.8°C 29% Calm Calm -- 29.58 in1001.7 mb 0.00 in0.0 mm 0.00 in0.0 mm 0.00 in0.0 mm
10:05 PM 30.6°F-0.8°C 1.8°F-16.8°C 29% Calm Calm -- 29.58 in1001.7 mb 0.00 in0.0 mm 0.00 in0.0 mm 0.00 in0.0 mm
10:20 PM 30.9°F-0.6°C 2.9°F-16.2°C 30% Calm Calm -- 29.58 in1001.7 mb 0.00 in0.0 mm 0.00 in0.0 mm 0.00 in0.0 mm
10:35 PM 30.9°F-0.6°C 2.9°F-16.2°C 30% Calm Calm 1.4 mph2.3 kmh 29.58 in1001.7 mb 0.00 in0.0 mm 0.00 in0.0 mm 0.00 in0.0 mm
10:50 PM 30.9°F-0.6°C 2.9°F-16.2°C 30% Calm Calm 1.4 mph2.3 kmh 29.58 in1001.7 mb 0.00 in0.0 mm 0.00 in0.0 mm 0.00 in0.0 mm
11:05 PM 30.6°F-0.8°C 2.6°F-16.3°C 30% Calm Calm -- 29.58 in1001.7 mb 0.00 in0.0 mm 0.00 in0.0 mm 0.00 in0.0 mm
11:20 PM 30.6°F-0.8°C 3.3°F-15.9°C 31% Calm Calm -- 29.59 in1002.0 mb 0.00 in0.0 mm 0.00 in0.0 mm 0.00 in0.0 mm
11:35 PM 30.6°F-0.8°C 3.3°F-15.9°C 31% Calm Calm -- 29.60 in1002.4 mb 0.00 in0.0 mm 0.00 in0.0 mm 0.00 in0.0 mm
11:50 PM 30.7°F-0.7°C 3.4°F-15.9°C 31% Calm Calm -- 29.60 in1002.4 mb 0.00 in0.0 mm 0.00 in0.0 mm 0.00 in0.0 mm